sensor_id;sensor_type;location;lat;lon;timestamp;P1;durP1;ratioP1;P2;durP2;ratioP2
74799;SDS011;63326;45.088;7.658;2023-06-19T00:02:13;7.03;;;4.07;;
74799;SDS011;63326;45.088;7.658;2023-06-19T00:04:39;9.20;;;4.80;;
74799;SDS011;63326;45.088;7.658;2023-06-19T00:07:06;7.53;;;3.78;;
74799;SDS011;63326;45.088;7.658;2023-06-19T00:09:33;8.02;;;4.53;;
74799;SDS011;63326;45.088;7.658;2023-06-19T00:12:00;6.82;;;4.07;;
74799;SDS011;63326;45.088;7.658;2023-06-19T00:14:27;6.25;;;4.05;;
74799;SDS011;63326;45.088;7.658;2023-06-19T00:16:54;8.07;;;4.22;;
74799;SDS011;63326;45.088;7.658;2023-06-19T00:19:21;9.80;;;4.97;;
74799;SDS011;63326;45.088;7.658;2023-06-19T00:21:49;9.55;;;4.95;;
74799;SDS011;63326;45.088;7.658;2023-06-19T00:24:15;9.48;;;5.65;;
74799;SDS011;63326;45.088;7.658;2023-06-19T00:26:42;7.95;;;4.65;;
74799;SDS011;63326;45.088;7.658;2023-06-19T00:31:36;7.53;;;4.47;;
74799;SDS011;63326;45.088;7.658;2023-06-19T00:34:03;11.13;;;5.10;;
74799;SDS011;63326;45.088;7.658;2023-06-19T00:36:30;6.85;;;4.47;;
74799;SDS011;63326;45.088;7.658;2023-06-19T00:38:57;8.18;;;4.25;;
74799;SDS011;63326;45.088;7.658;2023-06-19T00:41:24;9.57;;;4.53;;
74799;SDS011;63326;45.088;7.658;2023-06-19T00:43:54;7.68;;;4.32;;
74799;SDS011;63326;45.088;7.658;2023-06-19T00:46:20;9.13;;;5.45;;
74799;SDS011;63326;45.088;7.658;2023-06-19T00:48:48;9.02;;;5.35;;
74799;SDS011;63326;45.088;7.658;2023-06-19T00:51:17;7.95;;;4.97;;
74799;SDS011;63326;45.088;7.658;2023-06-19T00:53:44;8.27;;;5.05;;
74799;SDS011;63326;45.088;7.658;2023-06-19T00:56:10;7.85;;;4.35;;
74799;SDS011;63326;45.088;7.658;2023-06-19T00:58:38;10.35;;;6.28;;
74799;SDS011;63326;45.088;7.658;2023-06-19T01:01:05;8.82;;;4.78;;
74799;SDS011;63326;45.088;7.658;2023-06-19T01:03:36;8.57;;;4.85;;
74799;SDS011;63326;45.088;7.658;2023-06-19T01:06:08;8.00;;;4.88;;
74799;SDS011;63326;45.088;7.658;2023-06-19T01:11:28;8.40;;;4.32;;
74799;SDS011;63326;45.088;7.658;2023-06-19T01:14:00;7.32;;;4.68;;
74799;SDS011;63326;45.088;7.658;2023-06-19T01:16:31;8.57;;;3.90;;
74799;SDS011;63326;45.088;7.658;2023-06-19T01:19:01;8.48;;;4.10;;
74799;SDS011;63326;45.088;7.658;2023-06-19T01:21:29;7.75;;;4.38;;
74799;SDS011;63326;45.088;7.658;2023-06-19T01:23:56;9.63;;;5.78;;
74799;SDS011;63326;45.088;7.658;2023-06-19T01:26:23;9.95;;;6.15;;
74799;SDS011;63326;45.088;7.658;2023-06-19T01:28:56;9.68;;;6.43;;
74799;SDS011;63326;45.088;7.658;2023-06-19T01:31:59;12.13;;;5.70;;
74799;SDS011;63326;45.088;7.658;2023-06-19T01:34:22;11.05;;;6.05;;
74799;SDS011;63326;45.088;7.658;2023-06-19T01:36:52;8.90;;;5.00;;
74799;SDS011;63326;45.088;7.658;2023-06-19T01:39:23;9.18;;;5.18;;
74799;SDS011;63326;45.088;7.658;2023-06-19T01:44:18;4.60;;;3.13;;
74799;SDS011;63326;45.088;7.658;2023-06-19T01:46:49;9.23;;;5.93;;
74799;SDS011;63326;45.088;7.658;2023-06-19T01:49:17;11.20;;;5.90;;
74799;SDS011;63326;45.088;7.658;2023-06-19T01:51:45;8.82;;;4.90;;
74799;SDS011;63326;45.088;7.658;2023-06-19T01:54:12;6.40;;;4.63;;
74799;SDS011;63326;45.088;7.658;2023-06-19T01:56:38;6.20;;;3.83;;
74799;SDS011;63326;45.088;7.658;2023-06-19T01:59:05;8.68;;;4.43;;
74799;SDS011;63326;45.088;7.658;2023-06-19T02:01:32;5.90;;;3.70;;
74799;SDS011;63326;45.088;7.658;2023-06-19T02:04:00;6.32;;;3.83;;
74799;SDS011;63326;45.088;7.658;2023-06-19T02:06:29;5.97;;;2.97;;
74799;SDS011;63326;45.088;7.658;2023-06-19T02:08:56;6.63;;;3.55;;
74799;SDS011;63326;45.088;7.658;2023-06-19T02:11:23;9.35;;;4.53;;
74799;SDS011;63326;45.088;7.658;2023-06-19T02:13:53;9.07;;;5.70;;
74799;SDS011;63326;45.088;7.658;2023-06-19T02:16:19;10.02;;;6.35;;
74799;SDS011;63326;45.088;7.658;2023-06-19T02:18:48;8.80;;;4.55;;
74799;SDS011;63326;45.088;7.658;2023-06-19T02:21:14;7.57;;;4.38;;
74799;SDS011;63326;45.088;7.658;2023-06-19T02:23:41;8.23;;;4.22;;
74799;SDS011;63326;45.088;7.658;2023-06-19T02:26:08;6.53;;;3.78;;
74799;SDS011;63326;45.088;7.658;2023-06-19T02:28:34;6.90;;;4.03;;
74799;SDS011;63326;45.088;7.658;2023-06-19T02:31:01;6.32;;;3.92;;
74799;SDS011;63326;45.088;7.658;2023-06-19T02:33:28;11.45;;;4.43;;
74799;SDS011;63326;45.088;7.658;2023-06-19T02:35:55;9.40;;;4.93;;
74799;SDS011;63326;45.088;7.658;2023-06-19T02:38:26;9.10;;;5.53;;
74799;SDS011;63326;45.088;7.658;2023-06-19T02:40:53;7.72;;;4.25;;
74799;SDS011;63326;45.088;7.658;2023-06-19T02:43:20;6.88;;;3.97;;
74799;SDS011;63326;45.088;7.658;2023-06-19T02:45:46;5.65;;;4.10;;
74799;SDS011;63326;45.088;7.658;2023-06-19T02:48:13;7.18;;;4.40;;
74799;SDS011;63326;45.088;7.658;2023-06-19T02:50:40;5.90;;;3.67;;
74799;SDS011;63326;45.088;7.658;2023-06-19T02:53:07;5.60;;;3.60;;
74799;SDS011;63326;45.088;7.658;2023-06-19T02:55:34;7.05;;;3.67;;
74799;SDS011;63326;45.088;7.658;2023-06-19T02:58:02;5.95;;;3.25;;
74799;SDS011;63326;45.088;7.658;2023-06-19T03:00:29;7.13;;;4.15;;
74799;SDS011;63326;45.088;7.658;2023-06-19T03:02:56;6.90;;;3.67;;
74799;SDS011;63326;45.088;7.658;2023-06-19T03:05:24;6.55;;;3.38;;
74799;SDS011;63326;45.088;7.658;2023-06-19T03:07:55;5.25;;;3.15;;
74799;SDS011;63326;45.088;7.658;2023-06-19T03:10:21;6.07;;;3.55;;
74799;SDS011;63326;45.088;7.658;2023-06-19T03:12:49;5.15;;;2.70;;
74799;SDS011;63326;45.088;7.658;2023-06-19T03:15:16;5.15;;;3.00;;
74799;SDS011;63326;45.088;7.658;2023-06-19T03:17:46;8.77;;;5.80;;
74799;SDS011;63326;45.088;7.658;2023-06-19T03:20:13;10.48;;;6.78;;
74799;SDS011;63326;45.088;7.658;2023-06-19T03:22:47;9.57;;;5.65;;
74799;SDS011;63326;45.088;7.658;2023-06-19T03:25:15;8.02;;;5.30;;
74799;SDS011;63326;45.088;7.658;2023-06-19T03:27:42;11.13;;;5.70;;
74799;SDS011;63326;45.088;7.658;2023-06-19T03:30:09;9.88;;;5.93;;
74799;SDS011;63326;45.088;7.658;2023-06-19T03:32:41;10.07;;;5.60;;
74799;SDS011;63326;45.088;7.658;2023-06-19T03:35:14;8.20;;;4.25;;
74799;SDS011;63326;45.088;7.658;2023-06-19T03:37:43;10.18;;;5.10;;
74799;SDS011;63326;45.088;7.658;2023-06-19T03:40:11;6.85;;;4.70;;
74799;SDS011;63326;45.088;7.658;2023-06-19T03:42:42;9.77;;;6.03;;
74799;SDS011;63326;45.088;7.658;2023-06-19T03:45:11;8.80;;;5.47;;
74799;SDS011;63326;45.088;7.658;2023-06-19T03:47:37;7.88;;;4.88;;
74799;SDS011;63326;45.088;7.658;2023-06-19T03:50:05;9.23;;;5.50;;
74799;SDS011;63326;45.088;7.658;2023-06-19T03:52:47;11.75;;;5.68;;
74799;SDS011;63326;45.088;7.658;2023-06-19T03:55:13;8.60;;;5.22;;
74799;SDS011;63326;45.088;7.658;2023-06-19T03:57:40;8.45;;;5.05;;
74799;SDS011;63326;45.088;7.658;2023-06-19T04:00:07;10.02;;;6.32;;
74799;SDS011;63326;45.088;7.658;2023-06-19T04:02:37;10.07;;;6.18;;
74799;SDS011;63326;45.088;7.658;2023-06-19T04:05:05;9.95;;;6.05;;
74799;SDS011;63326;45.088;7.658;2023-06-19T04:07:32;9.88;;;5.13;;
74799;SDS011;63326;45.088;7.658;2023-06-19T04:09:59;10.35;;;6.00;;
74799;SDS011;63326;45.088;7.658;2023-06-19T04:12:26;9.52;;;5.22;;
74799;SDS011;63326;45.088;7.658;2023-06-19T04:14:52;9.35;;;4.72;;
74799;SDS011;63326;45.088;7.658;2023-06-19T04:17:19;8.43;;;5.15;;
74799;SDS011;63326;45.088;7.658;2023-06-19T04:19:48;8.90;;;5.00;;
74799;SDS011;63326;45.088;7.658;2023-06-19T04:22:15;8.68;;;5.28;;
74799;SDS011;63326;45.088;7.658;2023-06-19T04:24:41;11.52;;;6.80;;
74799;SDS011;63326;45.088;7.658;2023-06-19T04:27:08;13.13;;;7.55;;
74799;SDS011;63326;45.088;7.658;2023-06-19T04:29:35;13.13;;;7.35;;
74799;SDS011;63326;45.088;7.658;2023-06-19T04:32:02;14.10;;;7.55;;
74799;SDS011;63326;45.088;7.658;2023-06-19T04:34:38;10.70;;;6.20;;
74799;SDS011;63326;45.088;7.658;2023-06-19T04:39:32;10.50;;;6.28;;
74799;SDS011;63326;45.088;7.658;2023-06-19T04:41:58;10.02;;;5.95;;
74799;SDS011;63326;45.088;7.658;2023-06-19T04:44:26;11.82;;;7.45;;
74799;SDS011;63326;45.088;7.658;2023-06-19T04:46:53;12.88;;;7.72;;
74799;SDS011;63326;45.088;7.658;2023-06-19T04:49:30;13.57;;;7.57;;
74799;SDS011;63326;45.088;7.658;2023-06-19T04:51:57;16.25;;;8.13;;
74799;SDS011;63326;45.088;7.658;2023-06-19T04:54:25;13.18;;;8.07;;
74799;SDS011;63326;45.088;7.658;2023-06-19T04:56:52;10.63;;;6.75;;
74799;SDS011;63326;45.088;7.658;2023-06-19T04:59:19;12.30;;;6.47;;
74799;SDS011;63326;45.088;7.658;2023-06-19T05:01:46;12.57;;;7.68;;
74799;SDS011;63326;45.088;7.658;2023-06-19T05:04:13;11.68;;;6.45;;
74799;SDS011;63326;45.088;7.658;2023-06-19T05:06:40;12.73;;;7.28;;
74799;SDS011;63326;45.088;7.658;2023-06-19T05:09:09;13.02;;;7.57;;
74799;SDS011;63326;45.088;7.658;2023-06-19T05:11:37;13.85;;;8.70;;
74799;SDS011;63326;45.088;7.658;2023-06-19T05:14:04;11.63;;;7.03;;
74799;SDS011;63326;45.088;7.658;2023-06-19T05:16:30;12.75;;;8.13;;
74799;SDS011;63326;45.088;7.658;2023-06-19T05:19:01;11.40;;;6.95;;
74799;SDS011;63326;45.088;7.658;2023-06-19T05:21:27;8.43;;;5.25;;
74799;SDS011;63326;45.088;7.658;2023-06-19T05:23:54;13.10;;;8.05;;
74799;SDS011;63326;45.088;7.658;2023-06-19T05:26:21;8.38;;;5.18;;
74799;SDS011;63326;45.088;7.658;2023-06-19T05:28:49;10.95;;;5.60;;
74799;SDS011;63326;45.088;7.658;2023-06-19T05:31:16;11.05;;;7.10;;
74799;SDS011;63326;45.088;7.658;2023-06-19T05:33:44;11.68;;;6.35;;
74799;SDS011;63326;45.088;7.658;2023-06-19T05:36:11;8.88;;;6.35;;
74799;SDS011;63326;45.088;7.658;2023-06-19T05:38:38;11.70;;;7.07;;
74799;SDS011;63326;45.088;7.658;2023-06-19T05:41:04;12.32;;;5.78;;
74799;SDS011;63326;45.088;7.658;2023-06-19T05:43:31;8.52;;;5.13;;
74799;SDS011;63326;45.088;7.658;2023-06-19T05:45:58;11.70;;;6.55;;
74799;SDS011;63326;45.088;7.658;2023-06-19T05:48:28;10.20;;;6.35;;
74799;SDS011;63326;45.088;7.658;2023-06-19T05:50:55;16.17;;;9.60;;
74799;SDS011;63326;45.088;7.658;2023-06-19T05:53:23;8.38;;;6.13;;
74799;SDS011;63326;45.088;7.658;2023-06-19T05:58:16;14.13;;;8.73;;
74799;SDS011;63326;45.088;7.658;2023-06-19T06:00:46;9.00;;;6.57;;
74799;SDS011;63326;45.088;7.658;2023-06-19T06:03:13;9.55;;;5.80;;
74799;SDS011;63326;45.088;7.658;2023-06-19T06:05:40;11.07;;;7.05;;
74799;SDS011;63326;45.088;7.658;2023-06-19T06:08:08;7.78;;;4.97;;
74799;SDS011;63326;45.088;7.658;2023-06-19T06:10:35;9.30;;;5.70;;
74799;SDS011;63326;45.088;7.658;2023-06-19T06:13:02;12.73;;;7.32;;
74799;SDS011;63326;45.088;7.658;2023-06-19T06:15:28;9.07;;;5.60;;
74799;SDS011;63326;45.088;7.658;2023-06-19T06:17:55;12.55;;;8.02;;
74799;SDS011;63326;45.088;7.658;2023-06-19T06:20:22;7.32;;;4.80;;
74799;SDS011;63326;45.088;7.658;2023-06-19T06:22:49;10.02;;;6.45;;
74799;SDS011;63326;45.088;7.658;2023-06-19T06:25:16;8.45;;;6.30;;
74799;SDS011;63326;45.088;7.658;2023-06-19T06:27:43;7.30;;;5.47;;
74799;SDS011;63326;45.088;7.658;2023-06-19T06:30:10;10.27;;;7.60;;
74799;SDS011;63326;45.088;7.658;2023-06-19T06:32:38;9.23;;;6.35;;
74799;SDS011;63326;45.088;7.658;2023-06-19T06:35:08;7.80;;;5.38;;
74799;SDS011;63326;45.088;7.658;2023-06-19T06:37:35;12.73;;;7.80;;
74799;SDS011;63326;45.088;7.658;2023-06-19T06:40:02;11.23;;;6.63;;
74799;SDS011;63326;45.088;7.658;2023-06-19T06:42:31;9.00;;;6.38;;
74799;SDS011;63326;45.088;7.658;2023-06-19T06:44:58;7.30;;;5.25;;
74799;SDS011;63326;45.088;7.658;2023-06-19T06:47:25;7.60;;;5.72;;
74799;SDS011;63326;45.088;7.658;2023-06-19T06:49:51;10.05;;;7.53;;
74799;SDS011;63326;45.088;7.658;2023-06-19T06:52:18;7.47;;;4.90;;
74799;SDS011;63326;45.088;7.658;2023-06-19T06:54:45;7.57;;;5.80;;
74799;SDS011;63326;45.088;7.658;2023-06-19T06:57:11;10.57;;;8.15;;
74799;SDS011;63326;45.088;7.658;2023-06-19T06:59:38;10.18;;;7.72;;
74799;SDS011;63326;45.088;7.658;2023-06-19T07:02:05;8.98;;;6.43;;
74799;SDS011;63326;45.088;7.658;2023-06-19T07:04:32;9.80;;;7.13;;
74799;SDS011;63326;45.088;7.658;2023-06-19T07:06:59;9.63;;;6.97;;
74799;SDS011;63326;45.088;7.658;2023-06-19T07:11:53;13.30;;;8.63;;
74799;SDS011;63326;45.088;7.658;2023-06-19T07:14:19;10.75;;;7.78;;
74799;SDS011;63326;45.088;7.658;2023-06-19T07:16:46;11.13;;;8.05;;
74799;SDS011;63326;45.088;7.658;2023-06-19T07:19:13;11.57;;;8.02;;
74799;SDS011;63326;45.088;7.658;2023-06-19T07:21:40;10.88;;;6.97;;
74799;SDS011;63326;45.088;7.658;2023-06-19T07:24:07;8.90;;;6.00;;
74799;SDS011;63326;45.088;7.658;2023-06-19T07:26:34;7.45;;;5.88;;
74799;SDS011;63326;45.088;7.658;2023-06-19T07:31:28;10.38;;;7.88;;
74799;SDS011;63326;45.088;7.658;2023-06-19T07:33:55;10.25;;;6.95;;
74799;SDS011;63326;45.088;7.658;2023-06-19T07:36:21;13.52;;;9.23;;
74799;SDS011;63326;45.088;7.658;2023-06-19T07:38:48;8.02;;;5.95;;
74799;SDS011;63326;45.088;7.658;2023-06-19T07:41:15;10.07;;;6.72;;
74799;SDS011;63326;45.088;7.658;2023-06-19T07:43:42;11.32;;;7.45;;
74799;SDS011;63326;45.088;7.658;2023-06-19T07:48:35;9.65;;;7.40;;
74799;SDS011;63326;45.088;7.658;2023-06-19T07:51:02;9.00;;;6.30;;
74799;SDS011;63326;45.088;7.658;2023-06-19T07:53:29;11.77;;;8.35;;
74799;SDS011;63326;45.088;7.658;2023-06-19T07:58:23;6.35;;;4.95;;
74799;SDS011;63326;45.088;7.658;2023-06-19T08:03:16;9.32;;;6.55;;
74799;SDS011;63326;45.088;7.658;2023-06-19T08:05:43;7.28;;;5.20;;
74799;SDS011;63326;45.088;7.658;2023-06-19T08:08:11;6.30;;;5.05;;
74799;SDS011;63326;45.088;7.658;2023-06-19T08:10:38;7.22;;;5.47;;
74799;SDS011;63326;45.088;7.658;2023-06-19T08:13:07;6.28;;;4.85;;
74799;SDS011;63326;45.088;7.658;2023-06-19T08:15:34;6.80;;;4.57;;
74799;SDS011;63326;45.088;7.658;2023-06-19T08:18:01;6.72;;;4.88;;
74799;SDS011;63326;45.088;7.658;2023-06-19T08:20:28;8.35;;;6.68;;
74799;SDS011;63326;45.088;7.658;2023-06-19T08:25:22;6.60;;;5.72;;
74799;SDS011;63326;45.088;7.658;2023-06-19T08:27:49;6.32;;;5.65;;
74799;SDS011;63326;45.088;7.658;2023-06-19T08:30:16;7.50;;;5.20;;
74799;SDS011;63326;45.088;7.658;2023-06-19T08:35:10;8.85;;;5.13;;
74799;SDS011;63326;45.088;7.658;2023-06-19T08:37:37;6.78;;;5.35;;
74799;SDS011;63326;45.088;7.658;2023-06-19T08:42:35;9.07;;;7.18;;
74799;SDS011;63326;45.088;7.658;2023-06-19T08:45:02;5.75;;;4.85;;
74799;SDS011;63326;45.088;7.658;2023-06-19T08:47:30;7.65;;;6.55;;
74799;SDS011;63326;45.088;7.658;2023-06-19T08:49:58;6.80;;;5.00;;
74799;SDS011;63326;45.088;7.658;2023-06-19T08:52:28;5.78;;;5.18;;
74799;SDS011;63326;45.088;7.658;2023-06-19T08:54:54;6.43;;;5.78;;
74799;SDS011;63326;45.088;7.658;2023-06-19T08:59:51;7.40;;;5.63;;
74799;SDS011;63326;45.088;7.658;2023-06-19T09:02:17;9.48;;;8.10;;
74799;SDS011;63326;45.088;7.658;2023-06-19T09:04:44;10.05;;;8.50;;
74799;SDS011;63326;45.088;7.658;2023-06-19T09:09:46;7.82;;;6.22;;
74799;SDS011;63326;45.088;7.658;2023-06-19T09:12:13;5.80;;;5.20;;
74799;SDS011;63326;45.088;7.658;2023-06-19T09:14:45;8.10;;;5.65;;
74799;SDS011;63326;45.088;7.658;2023-06-19T09:17:21;6.28;;;4.65;;
74799;SDS011;63326;45.088;7.658;2023-06-19T09:19:52;7.80;;;6.28;;
74799;SDS011;63326;45.088;7.658;2023-06-19T09:22:22;7.32;;;5.60;;
74799;SDS011;63326;45.088;7.658;2023-06-19T09:24:51;8.25;;;6.95;;
74799;SDS011;63326;45.088;7.658;2023-06-19T09:27:18;9.15;;;6.13;;
74799;SDS011;63326;45.088;7.658;2023-06-19T09:29:47;8.45;;;6.22;;
74799;SDS011;63326;45.088;7.658;2023-06-19T09:34:51;7.00;;;5.90;;
74799;SDS011;63326;45.088;7.658;2023-06-19T09:37:24;8.60;;;6.03;;
74799;SDS011;63326;45.088;7.658;2023-06-19T09:42:27;8.68;;;6.00;;
74799;SDS011;63326;45.088;7.658;2023-06-19T09:44:57;9.80;;;7.15;;
74799;SDS011;63326;45.088;7.658;2023-06-19T09:47:46;7.60;;;5.50;;
74799;SDS011;63326;45.088;7.658;2023-06-19T09:50:16;7.95;;;6.20;;
74799;SDS011;63326;45.088;7.658;2023-06-19T09:52:47;6.82;;;5.22;;
74799;SDS011;63326;45.088;7.658;2023-06-19T09:55:18;7.72;;;4.68;;
74799;SDS011;63326;45.088;7.658;2023-06-19T09:57:46;9.73;;;7.03;;
74799;SDS011;63326;45.088;7.658;2023-06-19T10:00:15;8.40;;;6.60;;
74799;SDS011;63326;45.088;7.658;2023-06-19T10:02:43;9.32;;;5.53;;
74799;SDS011;63326;45.088;7.658;2023-06-19T10:05:12;7.70;;;6.78;;
74799;SDS011;63326;45.088;7.658;2023-06-19T10:07:41;6.05;;;4.47;;
74799;SDS011;63326;45.088;7.658;2023-06-19T10:10:10;7.47;;;4.53;;
74799;SDS011;63326;45.088;7.658;2023-06-19T10:12:46;7.45;;;5.78;;
74799;SDS011;63326;45.088;7.658;2023-06-19T10:15:15;6.93;;;5.45;;
74799;SDS011;63326;45.088;7.658;2023-06-19T10:17:43;8.57;;;6.47;;
74799;SDS011;63326;45.088;7.658;2023-06-19T10:20:28;9.25;;;5.90;;
74799;SDS011;63326;45.088;7.658;2023-06-19T10:25:27;9.50;;;6.88;;
74799;SDS011;63326;45.088;7.658;2023-06-19T10:27:58;8.13;;;6.75;;
74799;SDS011;63326;45.088;7.658;2023-06-19T10:30:25;8.82;;;6.80;;
74799;SDS011;63326;45.088;7.658;2023-06-19T10:32:53;9.15;;;6.28;;
74799;SDS011;63326;45.088;7.658;2023-06-19T10:35:20;8.48;;;6.45;;
74799;SDS011;63326;45.088;7.658;2023-06-19T10:37:51;6.53;;;5.10;;
74799;SDS011;63326;45.088;7.658;2023-06-19T10:42:44;8.95;;;6.18;;
74799;SDS011;63326;45.088;7.658;2023-06-19T10:45:13;9.43;;;6.30;;
74799;SDS011;63326;45.088;7.658;2023-06-19T10:47:44;8.07;;;6.80;;
74799;SDS011;63326;45.088;7.658;2023-06-19T10:50:12;7.68;;;5.22;;
74799;SDS011;63326;45.088;7.658;2023-06-19T10:52:40;7.65;;;6.07;;
74799;SDS011;63326;45.088;7.658;2023-06-19T10:55:09;9.68;;;6.78;;
74799;SDS011;63326;45.088;7.658;2023-06-19T10:57:36;8.77;;;5.78;;
74799;SDS011;63326;45.088;7.658;2023-06-19T11:00:03;8.02;;;5.57;;
74799;SDS011;63326;45.088;7.658;2023-06-19T11:02:38;6.97;;;5.18;;
74799;SDS011;63326;45.088;7.658;2023-06-19T11:05:07;9.80;;;6.95;;
74799;SDS011;63326;45.088;7.658;2023-06-19T11:07:34;7.35;;;5.78;;
74799;SDS011;63326;45.088;7.658;2023-06-19T11:10:02;10.15;;;7.43;;
74799;SDS011;63326;45.088;7.658;2023-06-19T11:12:31;9.05;;;6.38;;
74799;SDS011;63326;45.088;7.658;2023-06-19T11:15:02;7.88;;;6.15;;
74799;SDS011;63326;45.088;7.658;2023-06-19T11:17:30;7.80;;;5.97;;
74799;SDS011;63326;45.088;7.658;2023-06-19T11:19:57;9.73;;;6.40;;
74799;SDS011;63326;45.088;7.658;2023-06-19T11:22:38;8.23;;;6.35;;
74799;SDS011;63326;45.088;7.658;2023-06-19T11:25:07;6.55;;;4.93;;
74799;SDS011;63326;45.088;7.658;2023-06-19T11:27:37;8.18;;;6.28;;
74799;SDS011;63326;45.088;7.658;2023-06-19T11:30:06;10.13;;;5.80;;
74799;SDS011;63326;45.088;7.658;2023-06-19T11:32:34;7.30;;;5.72;;
74799;SDS011;63326;45.088;7.658;2023-06-19T11:35:11;7.80;;;5.72;;
74799;SDS011;63326;45.088;7.658;2023-06-19T11:37:42;10.38;;;6.70;;
74799;SDS011;63326;45.088;7.658;2023-06-19T11:40:12;7.63;;;6.00;;
74799;SDS011;63326;45.088;7.658;2023-06-19T11:42:46;6.35;;;5.28;;
74799;SDS011;63326;45.088;7.658;2023-06-19T11:45:18;7.85;;;5.57;;
74799;SDS011;63326;45.088;7.658;2023-06-19T11:47:45;7.03;;;5.13;;
74799;SDS011;63326;45.088;7.658;2023-06-19T11:50:13;7.18;;;5.43;;
74799;SDS011;63326;45.088;7.658;2023-06-19T11:52:42;7.68;;;6.03;;
74799;SDS011;63326;45.088;7.658;2023-06-19T11:55:12;6.07;;;4.90;;
74799;SDS011;63326;45.088;7.658;2023-06-19T11:57:40;7.97;;;5.22;;
74799;SDS011;63326;45.088;7.658;2023-06-19T12:00:14;9.35;;;6.97;;
74799;SDS011;63326;45.088;7.658;2023-06-19T12:02:43;8.10;;;4.95;;
74799;SDS011;63326;45.088;7.658;2023-06-19T12:05:11;7.82;;;5.65;;
74799;SDS011;63326;45.088;7.658;2023-06-19T12:07:38;7.10;;;5.85;;
74799;SDS011;63326;45.088;7.658;2023-06-19T12:10:05;9.07;;;5.35;;
74799;SDS011;63326;45.088;7.658;2023-06-19T12:12:36;6.65;;;4.65;;
74799;SDS011;63326;45.088;7.658;2023-06-19T12:15:04;6.15;;;4.88;;
74799;SDS011;63326;45.088;7.658;2023-06-19T12:17:31;8.10;;;6.13;;
74799;SDS011;63326;45.088;7.658;2023-06-19T12:19:59;6.75;;;5.05;;
74799;SDS011;63326;45.088;7.658;2023-06-19T12:22:27;7.55;;;5.47;;
74799;SDS011;63326;45.088;7.658;2023-06-19T12:24:54;6.05;;;4.65;;
74799;SDS011;63326;45.088;7.658;2023-06-19T12:27:21;7.78;;;4.28;;
74799;SDS011;63326;45.088;7.658;2023-06-19T12:29:48;8.13;;;5.60;;
74799;SDS011;63326;45.088;7.658;2023-06-19T12:32:14;6.18;;;4.57;;
74799;SDS011;63326;45.088;7.658;2023-06-19T12:34:41;5.57;;;4.05;;
74799;SDS011;63326;45.088;7.658;2023-06-19T12:37:15;7.75;;;5.25;;
74799;SDS011;63326;45.088;7.658;2023-06-19T12:39:46;6.32;;;5.18;;
74799;SDS011;63326;45.088;7.658;2023-06-19T12:42:13;7.50;;;5.95;;
74799;SDS011;63326;45.088;7.658;2023-06-19T12:44:40;6.20;;;4.53;;
74799;SDS011;63326;45.088;7.658;2023-06-19T12:47:07;7.45;;;4.65;;
74799;SDS011;63326;45.088;7.658;2023-06-19T12:49:34;6.47;;;4.30;;
74799;SDS011;63326;45.088;7.658;2023-06-19T12:52:01;5.88;;;4.50;;
74799;SDS011;63326;45.088;7.658;2023-06-19T12:54:28;7.95;;;5.22;;
74799;SDS011;63326;45.088;7.658;2023-06-19T12:56:55;6.15;;;4.40;;
74799;SDS011;63326;45.088;7.658;2023-06-19T12:59:22;7.57;;;5.22;;
74799;SDS011;63326;45.088;7.658;2023-06-19T13:01:49;7.68;;;4.80;;
74799;SDS011;63326;45.088;7.658;2023-06-19T13:04:16;6.47;;;4.43;;
74799;SDS011;63326;45.088;7.658;2023-06-19T13:09:09;6.63;;;4.63;;
74799;SDS011;63326;45.088;7.658;2023-06-19T13:11:36;8.05;;;5.07;;
74799;SDS011;63326;45.088;7.658;2023-06-19T13:14:04;7.88;;;4.88;;
74799;SDS011;63326;45.088;7.658;2023-06-19T13:16:31;6.57;;;5.07;;
74799;SDS011;63326;45.088;7.658;2023-06-19T13:19:12;8.40;;;5.18;;
74799;SDS011;63326;45.088;7.658;2023-06-19T13:21:40;6.05;;;4.50;;
74799;SDS011;63326;45.088;7.658;2023-06-19T13:24:07;7.00;;;5.22;;
74799;SDS011;63326;45.088;7.658;2023-06-19T13:26:34;8.32;;;4.82;;
74799;SDS011;63326;45.088;7.658;2023-06-19T13:29:01;7.78;;;5.63;;
74799;SDS011;63326;45.088;7.658;2023-06-19T13:31:28;8.32;;;5.70;;
74799;SDS011;63326;45.088;7.658;2023-06-19T13:33:55;7.15;;;4.82;;
74799;SDS011;63326;45.088;7.658;2023-06-19T13:36:22;5.78;;;4.75;;
74799;SDS011;63326;45.088;7.658;2023-06-19T13:38:50;6.05;;;4.60;;
74799;SDS011;63326;45.088;7.658;2023-06-19T13:41:18;9.13;;;5.28;;
74799;SDS011;63326;45.088;7.658;2023-06-19T13:43:45;7.22;;;5.13;;
74799;SDS011;63326;45.088;7.658;2023-06-19T13:46:12;7.50;;;4.78;;
74799;SDS011;63326;45.088;7.658;2023-06-19T13:51:05;7.00;;;4.28;;
74799;SDS011;63326;45.088;7.658;2023-06-19T13:53:32;7.43;;;5.25;;
74799;SDS011;63326;45.088;7.658;2023-06-19T13:55:59;6.40;;;4.35;;
74799;SDS011;63326;45.088;7.658;2023-06-19T13:58:26;6.93;;;5.05;;
74799;SDS011;63326;45.088;7.658;2023-06-19T14:00:53;8.57;;;5.40;;
74799;SDS011;63326;45.088;7.658;2023-06-19T14:03:19;5.97;;;4.28;;
74799;SDS011;63326;45.088;7.658;2023-06-19T14:05:47;7.25;;;4.47;;
74799;SDS011;63326;45.088;7.658;2023-06-19T14:08:13;7.28;;;5.72;;
74799;SDS011;63326;45.088;7.658;2023-06-19T14:13:08;6.60;;;5.18;;
74799;SDS011;63326;45.088;7.658;2023-06-19T14:15:39;6.20;;;4.65;;
74799;SDS011;63326;45.088;7.658;2023-06-19T14:18:06;5.65;;;4.43;;
74799;SDS011;63326;45.088;7.658;2023-06-19T14:22:59;6.97;;;4.30;;
74799;SDS011;63326;45.088;7.658;2023-06-19T14:25:26;5.35;;;3.90;;
74799;SDS011;63326;45.088;7.658;2023-06-19T14:27:53;7.63;;;5.18;;
74799;SDS011;63326;45.088;7.658;2023-06-19T14:30:20;5.90;;;4.32;;
74799;SDS011;63326;45.088;7.658;2023-06-19T14:32:48;6.07;;;4.97;;
74799;SDS011;63326;45.088;7.658;2023-06-19T14:35:15;9.00;;;5.00;;
74799;SDS011;63326;45.088;7.658;2023-06-19T14:40:08;8.63;;;5.22;;
74799;SDS011;63326;45.088;7.658;2023-06-19T14:42:36;6.75;;;4.72;;
74799;SDS011;63326;45.088;7.658;2023-06-19T14:45:03;7.25;;;5.78;;
74799;SDS011;63326;45.088;7.658;2023-06-19T14:47:30;7.30;;;5.28;;
74799;SDS011;63326;45.088;7.658;2023-06-19T14:52:24;5.32;;;3.95;;
74799;SDS011;63326;45.088;7.658;2023-06-19T14:54:50;5.88;;;4.15;;
74799;SDS011;63326;45.088;7.658;2023-06-19T14:57:17;5.78;;;4.00;;
74799;SDS011;63326;45.088;7.658;2023-06-19T14:59:44;7.47;;;5.13;;
74799;SDS011;63326;45.088;7.658;2023-06-19T15:02:11;7.47;;;5.07;;
74799;SDS011;63326;45.088;7.658;2023-06-19T15:04:38;7.68;;;5.82;;
74799;SDS011;63326;45.088;7.658;2023-06-19T15:07:22;5.65;;;4.05;;
74799;SDS011;63326;45.088;7.658;2023-06-19T15:09:49;7.00;;;4.65;;
74799;SDS011;63326;45.088;7.658;2023-06-19T15:12:16;8.52;;;4.80;;
74799;SDS011;63326;45.088;7.658;2023-06-19T15:14:44;8.38;;;6.15;;
74799;SDS011;63326;45.088;7.658;2023-06-19T15:17:11;6.00;;;5.13;;
74799;SDS011;63326;45.088;7.658;2023-06-19T15:19:37;6.78;;;4.90;;
74799;SDS011;63326;45.088;7.658;2023-06-19T15:22:04;6.72;;;4.90;;
74799;SDS011;63326;45.088;7.658;2023-06-19T15:24:31;4.97;;;4.32;;
74799;SDS011;63326;45.088;7.658;2023-06-19T15:26:58;6.93;;;5.18;;
74799;SDS011;63326;45.088;7.658;2023-06-19T15:29:26;6.50;;;5.20;;
74799;SDS011;63326;45.088;7.658;2023-06-19T15:31:53;7.10;;;4.85;;
74799;SDS011;63326;45.088;7.658;2023-06-19T15:34:20;5.95;;;4.38;;
74799;SDS011;63326;45.088;7.658;2023-06-19T15:36:47;6.00;;;4.15;;
74799;SDS011;63326;45.088;7.658;2023-06-19T15:39:14;6.22;;;4.47;;
74799;SDS011;63326;45.088;7.658;2023-06-19T15:41:42;5.75;;;4.20;;
74799;SDS011;63326;45.088;7.658;2023-06-19T15:44:13;8.43;;;4.53;;
74799;SDS011;63326;45.088;7.658;2023-06-19T15:46:40;6.47;;;4.32;;
74799;SDS011;63326;45.088;7.658;2023-06-19T15:49:07;6.68;;;5.10;;
74799;SDS011;63326;45.088;7.658;2023-06-19T15:51:36;6.25;;;4.63;;
74799;SDS011;63326;45.088;7.658;2023-06-19T15:54:03;5.40;;;3.67;;